DIAPDFFD

Guest
Details From DIAP - Abidjan Felix Houphouet Boigny Intl
To DFFD - Ouagadougou
Flight Number -
Tags Generated
Created
Modified
Stats Distance 450 nm / 833 km
Max Altitude 0 ft / 0 m
Waypoints 3
Social Downloads 0
Likes 0
Share VATSIM

Download

Looking for another format? Having issues loading an existing format? Contact us
Advertisement - Login to hide

Notes

Generated

Route

DIAP OUA DFFD

ID Type Via Altitude Latitude Longitude Leg Dist Tot Dist Heading (true) Name
O DIAP APT - 0 ft / 0 m 5.24885˚ -3.93145˚ - 0 nm - -
OUA NDB - 0 ft / 0 m 12.33400˚ -1.52519˚ 448 nm 448 nm 18° / 19° OUAGADOUGOU NDB
O DFFD APT - 0 ft / 0 m 12.34428˚ -1.51578˚ 0 nm 449 nm 42° / 42° -

Altitude Profile

Advertisement - Login to hide

Weather


0- 5 10 15 20 25 30 35+ Temperature / ° C

Clouds and Precipitation
Forecast for 2018-05-22 12:00 UTC. Updated 2 hours ago

Ground ~20,000 ft ~40,000 ft Winds

DIAP

Details ICAO DIAP (ABJ)
Name Abidjan Felix Houphouet Boigny Intl
Region Côte d'Ivoire
Timezone Africa/Abidjan (UTC+0.0)
Stats Elevation 21 ft / 6 m (AMSL)
Location 5.261386° -3.926296°
Runways 1
Magnetic Variation 4.636° W

METAR

DIAP 221230Z 22008KT 9999 SCT012 SCT043 30/24 Q1011 NOSIG

Decode

TAF

TAF DIAP 221100Z 2212/2318 22010KT 9999 SCT012 TEMPO 2212/2216 BKN012 TEMPO 23122318 4000 RA BKN012

Decode

Departure Runways

ID Width Length Bearing (true) Bearing (mag) Surface Threshold Offset Overrun Length
03 164 ft / 50 m 9,889 ft / 3,014 m 22.27° 26.91° Asphalt 0 ft / 0 m 197 ft / 60 m
21 164 ft / 50 m 9,889 ft / 3,014 m 202.27° 206.91° Asphalt 0 ft / 0 m 328 ft / 100 m

DFFD

Details ICAO DFFD (OUA)
Name OUAGADOUGOU
Region Burkina Faso
Timezone Africa/Ouagadougou (UTC+0.0)
Stats Elevation 1,037 ft / 316 m (AMSL)
Location 12.352189° -1.511605°
Runways 2
Magnetic Variation 2.247° W

METAR

DFFD 221200Z 28006KT CAVOK 36/19 Q1010 NOSIG

Decode

TAF

TAF DFFD 221100Z 2212/2318 24010KT CAVOK TEMPO 2215/2302 VRB25G40KT 3000 BLSA SQ TSRA SCT026 FEW036CB

Decode

Destination Runways

ID Width Length Bearing (true) Bearing (mag) Surface Threshold Offset Overrun Length
04L 148 ft / 45 m 9,968 ft / 3,038 m 33.56° 35.81° Asphalt 0 ft / 0 m 0 ft / 0 m
04R 98 ft / 30 m 6,289 ft / 1,917 m 35.23° 37.48° Gravel 0 ft / 0 m 0 ft / 0 m
22L 98 ft / 30 m 6,289 ft / 1,917 m 215.23° 217.48° Gravel 0 ft / 0 m 0 ft / 0 m
22R 148 ft / 45 m 9,968 ft / 3,038 m 213.57° 215.82° Asphalt 0 ft / 0 m 0 ft / 0 m

Approach Navaids

Runway Type Ident Frequency Range Bearing (true) Bearing (mag) Slope Elevation
04L Localiser OG 110.10 MHz 18 nm / 33 km 33.54° 35.78° - 977 ft / 298 m (AMSL)
04L Glidescope OG 110.10 MHz 10 nm / 19 km 33.57° 35.81° 3.00° 1,054 ft / 321 m (AMSL)
04L DME OG 110.10 MHz 18 nm / 33 km - - - 1,054 ft / 321 m (AMSL)

Popular Alternatives